createdAt,value
2017-12-23T00:02:24.709Z,102629.11
2017-12-23T00:04:51.721Z,102636.05
2017-12-23T00:07:18.529Z,102627.67
2017-12-23T00:09:46.360Z,102628.55
2017-12-23T00:12:13.231Z,102628.48
2017-12-23T00:14:40.266Z,102622.38
2017-12-23T00:17:07.024Z,102624.11
2017-12-23T00:19:33.922Z,102621.01
2017-12-23T00:22:00.745Z,102622.28
2017-12-23T00:24:27.564Z,102617.42
2017-12-23T00:26:55.104Z,102616.08
2017-12-23T00:29:21.931Z,102616.91
2017-12-23T00:31:48.752Z,102609.91
2017-12-23T00:34:30.659Z,102609.05
2017-12-23T00:36:57.496Z,102606.37
2017-12-23T00:39:24.306Z,102612.48
2017-12-23T00:41:51.896Z,102609.86
2017-12-23T00:44:18.685Z,102618.61
2017-12-23T00:46:46.452Z,102615.95
2017-12-23T00:49:13.270Z,102603.57
2017-12-23T00:51:45.412Z,102604.89
2017-12-23T00:54:13.124Z,102593.52
2017-12-23T00:56:39.975Z,102600.53
2017-12-23T00:59:06.813Z,102593.03
2017-12-23T01:01:33.641Z,102592.59
2017-12-23T01:04:01.221Z,102582.93
2017-12-23T01:06:28.779Z,102584.27
2017-12-23T01:08:55.688Z,102578.16
2017-12-23T01:11:22.740Z,102583.87
2017-12-23T01:13:49.565Z,102571.98
2017-12-23T01:16:16.465Z,102568.44
2017-12-23T01:18:43.286Z,102568.47
2017-12-23T01:21:10.107Z,102567.97
2017-12-23T01:23:36.944Z,102569.78
2017-12-23T01:26:04.512Z,102569.34
2017-12-23T01:28:32.061Z,102576.78
2017-12-23T01:30:58.917Z,102570.63
2017-12-23T01:33:25.754Z,102568.00
2017-12-23T01:35:52.571Z,102569.31
2017-12-23T01:38:19.460Z,102564.48
2017-12-23T01:40:46.244Z,102565.80
2017-12-23T01:43:13.203Z,102558.78
2017-12-23T01:45:40.203Z,102557.43
2017-12-23T01:48:07.175Z,102549.09
2017-12-23T01:50:34.000Z,102547.27
2017-12-23T01:53:00.876Z,102549.47
2017-12-23T01:55:29.504Z,102546.83
2017-12-23T01:57:57.210Z,102542.44
2017-12-23T02:00:25.322Z,102538.48
2017-12-23T02:02:56.536Z,102530.14
2017-12-23T02:05:23.615Z,102518.28
2017-12-23T02:07:51.863Z,102519.59
2017-12-23T02:10:19.934Z,102512.16
2017-12-23T02:12:50.365Z,102508.64
2017-12-23T02:15:19.589Z,102505.16
2017-12-23T02:27:37.779Z,102502.88
2017-12-23T02:30:06.269Z,102506.86
2017-12-23T02:32:35.491Z,102507.36
2017-12-23T02:35:04.007Z,102500.70
2017-12-23T02:37:35.046Z,102501.62
2017-12-23T02:40:04.731Z,102491.48
2017-12-23T02:42:36.828Z,102481.85
2017-12-23T02:45:04.532Z,102480.06
2017-12-23T02:47:31.360Z,102471.72
2017-12-23T02:49:58.169Z,102473.47
2017-12-23T02:52:25.054Z,102470.84
2017-12-23T02:54:51.960Z,102471.28
2017-12-23T02:57:18.756Z,102474.82
2017-12-23T02:59:45.570Z,102473.06
2017-12-23T03:02:12.445Z,102466.03
2017-12-23T03:04:39.250Z,102459.42
2017-12-23T03:07:06.150Z,102460.23
2017-12-23T03:09:32.988Z,102456.28
2017-12-23T03:11:59.907Z,102460.27
2017-12-23T03:14:27.648Z,102464.66
2017-12-23T03:16:54.433Z,102473.00
2017-12-23T03:19:21.246Z,102472.09
2017-12-23T03:21:48.045Z,102475.64
2017-12-23T03:24:17.296Z,102479.19
2017-12-23T03:26:44.102Z,102473.88
2017-12-23T03:29:10.930Z,102480.50
2017-12-23T03:31:37.743Z,102488.38
2017-12-23T03:34:04.554Z,102485.34
2017-12-23T03:36:31.379Z,102473.03
2017-12-23T03:38:58.204Z,102470.40
2017-12-23T03:41:25.048Z,102465.98
2017-12-23T03:43:51.998Z,102457.19
2017-12-23T03:46:18.793Z,102462.93
2017-12-23T03:48:45.599Z,102460.73
2017-12-23T03:51:12.408Z,102463.41
2017-12-23T03:53:39.240Z,102463.41
2017-12-23T03:56:06.005Z,102456.81
2017-12-23T03:58:32.820Z,102469.95
2017-12-23T04:00:59.652Z,102467.80
2017-12-23T04:03:26.476Z,102469.95
2017-12-23T04:05:53.280Z,102472.19
2017-12-23T04:08:20.073Z,102469.55
2017-12-23T04:10:47.635Z,102470.87
2017-12-23T04:13:14.452Z,102472.19
2017-12-23T04:15:41.249Z,102468.27
2017-12-23T04:18:08.032Z,102469.58
2017-12-23T04:20:35.574Z,102474.47
2017-12-23T04:23:02.416Z,102475.38
2017-12-23T04:25:29.232Z,102474.47
2017-12-23T04:27:56.826Z,102479.77
2017-12-23T04:30:23.650Z,102474.50
2017-12-23T04:32:50.488Z,102483.32
2017-12-23T04:35:17.329Z,102477.11
2017-12-23T04:37:44.881Z,102463.12
2017-12-23T04:40:11.687Z,102471.02
2017-12-23T04:42:38.508Z,102475.42
2017-12-23T04:45:05.380Z,102480.28
2017-12-23T04:47:32.185Z,102468.42
2017-12-23T04:49:58.988Z,102463.62
2017-12-23T04:52:25.798Z,102464.91
2017-12-23T04:54:52.593Z,102453.48
2017-12-23T04:57:19.434Z,102461.36
2017-12-23T04:59:47.018Z,102455.21
2017-12-23T05:02:14.585Z,102465.78
2017-12-23T05:04:41.361Z,102464.47
2017-12-23T05:07:08.943Z,102467.45
2017-12-23T05:09:36.471Z,102467.10
2017-12-23T05:12:03.322Z,102461.42
2017-12-23T05:14:30.159Z,102464.44
2017-12-23T05:16:56.987Z,102457.00
2017-12-23T05:19:23.763Z,102452.61
2017-12-23T05:21:51.330Z,102444.61
2017-12-23T05:24:19.025Z,102448.19
2017-12-23T05:26:45.950Z,102440.31
2017-12-23T05:29:12.845Z,102435.89
2017-12-23T05:31:40.385Z,102435.52
2017-12-23T05:34:07.196Z,102429.80
2017-12-23T05:36:34.019Z,102427.17
2017-12-23T05:39:00.807Z,102439.02
2017-12-23T05:41:28.381Z,102436.83
2017-12-23T05:43:55.179Z,102435.13
2017-12-23T05:46:22.007Z,102429.87
2017-12-23T05:48:48.809Z,102422.84
2017-12-23T05:51:15.654Z,102411.33
2017-12-23T05:53:42.443Z,102414.84
2017-12-23T05:56:09.245Z,102413.11
2017-12-23T05:58:36.763Z,102410.45
2017-12-23T06:01:03.592Z,102408.66
2017-12-23T06:03:30.404Z,102405.72
2017-12-23T06:05:57.211Z,102412.67
2017-12-23T06:08:24.037Z,102412.64
2017-12-23T06:10:50.843Z,102407.88
2017-12-23T06:13:17.629Z,102412.30
2017-12-23T06:15:44.454Z,102412.30
2017-12-23T06:18:11.280Z,102413.15
2017-12-23T06:20:38.117Z,102415.34
2017-12-23T06:23:04.917Z,102410.14
2017-12-23T06:25:32.446Z,102404.84
2017-12-23T06:27:59.426Z,102408.45
2017-12-23T06:30:26.249Z,102398.72
2017-12-23T06:32:53.077Z,102398.22
2017-12-23T06:35:20.635Z,102388.25
2017-12-23T06:37:47.454Z,102394.39
2017-12-23T06:40:14.253Z,102392.58
2017-12-23T06:42:41.066Z,102393.55
2017-12-23T06:45:07.853Z,102387.43
2017-12-23T06:47:34.682Z,102392.33
2017-12-23T06:50:01.513Z,102383.42
2017-12-23T06:52:29.049Z,102380.50
2017-12-23T06:54:55.840Z,102386.96
2017-12-23T06:57:22.672Z,102387.88
2017-12-23T06:59:49.453Z,102390.95
2017-12-23T07:02:16.274Z,102387.84
2017-12-23T07:04:43.078Z,102381.35
2017-12-23T07:07:09.876Z,102377.34
2017-12-23T07:09:36.698Z,102386.18
2017-12-23T07:12:03.549Z,102384.95
2017-12-23T07:14:30.364Z,102378.69
2017-12-23T07:16:57.183Z,102386.65
2017-12-23T07:19:23.976Z,102379.19
2017-12-23T07:21:50.744Z,102389.34
2017-12-23T07:24:17.542Z,102383.17
2017-12-23T07:26:44.337Z,102386.71
2017-12-23T07:29:11.891Z,102384.05
2017-12-23T07:31:39.434Z,102379.97
2017-12-23T07:34:06.207Z,102377.02
2017-12-23T07:36:33.006Z,102387.56
2017-12-23T07:38:59.801Z,102394.52
2017-12-23T07:41:26.621Z,102394.93
2017-12-23T07:43:53.439Z,102397.19
2017-12-23T07:46:20.264Z,102398.38
2017-12-23T07:48:47.177Z,102408.03
2017-12-23T07:51:14.003Z,102407.69
2017-12-23T07:53:40.829Z,102403.70
2017-12-23T07:56:07.627Z,102408.56
2017-12-23T07:58:34.415Z,102409.85
2017-12-23T08:01:01.189Z,102409.39
2017-12-23T08:03:28.023Z,102409.38
2017-12-23T08:05:54.823Z,102415.56
2017-12-23T08:08:21.639Z,102419.02
2017-12-23T08:10:48.430Z,102426.95
2017-12-23T08:13:15.592Z,102422.94
2017-12-23T08:15:42.429Z,102427.67
2017-12-23T08:18:09.248Z,102433.91
2017-12-23T08:20:36.122Z,102425.51
2017-12-23T08:23:03.617Z,102430.84
2017-12-23T08:25:30.484Z,102428.55
2017-12-23T08:27:57.341Z,102415.78
2017-12-23T08:30:24.183Z,102416.25
2017-12-23T08:32:51.706Z,102410.11
2017-12-23T08:35:18.484Z,102414.97
2017-12-23T08:37:45.311Z,102414.88
2017-12-23T08:40:12.122Z,102417.09
2017-12-23T08:42:38.901Z,102418.02
2017-12-23T08:45:05.712Z,102415.78
2017-12-23T08:47:32.523Z,102408.31
2017-12-23T08:50:00.073Z,102414.81
2017-12-23T08:52:26.862Z,102408.79
2017-12-23T08:54:54.431Z,102404.84
2017-12-23T08:57:21.207Z,102407.88
2017-12-23T08:59:48.755Z,102410.11
2017-12-23T09:02:15.575Z,102405.66
2017-12-23T09:04:42.345Z,102414.41
2017-12-23T09:07:09.172Z,102413.11
2017-12-23T09:09:35.984Z,102410.89
2017-12-23T09:12:02.790Z,102402.55
2017-12-23T09:14:29.572Z,102403.89
2017-12-23T09:16:56.379Z,102402.04
2017-12-23T09:19:23.152Z,102400.25
2017-12-23T09:21:50.726Z,102401.57
2017-12-23T09:24:17.505Z,102403.77
2017-12-23T09:26:44.325Z,102399.44
2017-12-23T09:29:11.090Z,102401.20
2017-12-23T09:31:37.921Z,102398.97
2017-12-23T09:34:04.808Z,102394.61
2017-12-23T09:36:31.594Z,102400.72
2017-12-23T09:38:58.407Z,102394.55
2017-12-23T09:41:25.217Z,102389.20
2017-12-23T09:43:52.089Z,102386.13
2017-12-23T09:46:19.648Z,102383.94
2017-12-23T09:48:46.480Z,102382.17
2017-12-23T09:51:13.264Z,102386.13
2017-12-23T09:53:40.080Z,102381.30
2017-12-23T09:56:06.899Z,102382.21
2017-12-23T09:58:33.702Z,102381.73
2017-12-23T10:01:00.482Z,102383.50
2017-12-23T10:03:27.269Z,102390.48
2017-12-23T10:05:54.081Z,102383.94
2017-12-23T10:08:20.885Z,102384.34
2017-12-23T10:10:47.688Z,102378.19
2017-12-23T10:13:14.471Z,102366.30
2017-12-23T10:15:41.308Z,102366.77
2017-12-23T10:18:08.093Z,102364.54
2017-12-23T10:20:35.688Z,102362.41
2017-12-23T10:23:02.531Z,102357.95
2017-12-23T10:25:29.361Z,102354.47
2017-12-23T10:27:56.197Z,102354.47
2017-12-23T10:30:23.058Z,102357.14
2017-12-23T10:32:49.903Z,102359.74
2017-12-23T10:35:16.830Z,102365.89
2017-12-23T10:37:43.682Z,102363.66
2017-12-23T10:40:10.498Z,102364.54
2017-12-23T10:42:37.306Z,102368.56
2017-12-23T10:45:04.161Z,102364.58
2017-12-23T10:47:30.996Z,102364.10
2017-12-23T10:49:57.816Z,102361.91
2017-12-23T10:52:24.631Z,102363.55
2017-12-23T10:54:53.257Z,102357.03
2017-12-23T10:57:20.081Z,102344.70
2017-12-23T10:59:47.055Z,102352.54
2017-12-23T11:02:15.127Z,102360.41
2017-12-23T11:04:41.975Z,102353.83
2017-12-23T11:07:08.797Z,102349.03
2017-12-23T11:09:35.658Z,102346.80
2017-12-23T11:12:02.649Z,102338.48
2017-12-23T11:14:29.444Z,102338.01
2017-12-23T11:16:57.039Z,102342.44
2017-12-23T11:19:23.824Z,102340.72
2017-12-23T11:21:50.690Z,102338.11
2017-12-23T11:24:17.517Z,102332.41
2017-12-23T11:26:44.360Z,102336.77
2017-12-23T11:29:11.164Z,102333.25
2017-12-23T11:31:37.978Z,102333.65
2017-12-23T11:34:04.802Z,102331.13
2017-12-23T11:36:31.700Z,102333.28
2017-12-23T11:38:58.574Z,102328.05
2017-12-23T11:41:26.129Z,102315.23
2017-12-23T11:43:52.908Z,102317.91
2017-12-23T11:46:20.484Z,102318.34
2017-12-23T11:48:47.339Z,102315.20
2017-12-23T11:51:15.152Z,102317.03
2017-12-23T11:53:42.034Z,102319.12
2017-12-23T11:56:08.882Z,102322.23
2017-12-23T11:58:35.684Z,102317.03
2017-12-23T12:01:02.517Z,102313.52
2017-12-23T12:03:29.329Z,102316.08
2017-12-23T12:05:56.156Z,102302.90
2017-12-23T12:08:23.542Z,102304.18
2017-12-23T12:10:50.419Z,102299.34
2017-12-23T12:13:17.261Z,102309.02
2017-12-23T12:15:44.070Z,102307.26
2017-12-23T12:18:11.650Z,102322.19
2017-12-23T12:20:38.447Z,102304.98
2017-12-23T12:23:05.222Z,102309.86
2017-12-23T12:25:32.015Z,102308.09
2017-12-23T12:27:58.873Z,102311.20
2017-12-23T12:30:26.422Z,102309.34
2017-12-23T12:32:53.340Z,102306.70
2017-12-23T12:35:20.174Z,102303.59
2017-12-23T12:37:46.975Z,102300.04
2017-12-23T12:40:14.457Z,102293.48
2017-12-23T12:42:41.432Z,102293.01
2017-12-23T12:45:08.555Z,102291.25
2017-12-23T12:47:36.876Z,102283.74
2017-12-23T12:50:03.887Z,102279.79
2017-12-23T12:52:30.678Z,102275.39
2017-12-23T12:54:58.188Z,102266.17
2017-12-23T12:57:25.811Z,102267.48
2017-12-23T12:59:52.951Z,102256.94
2017-12-23T13:02:19.717Z,102256.50
2017-12-23T13:04:46.532Z,102259.10
2017-12-23T13:07:13.285Z,102259.14
2017-12-23T13:09:40.905Z,102258.70
2017-12-23T13:12:07.739Z,102245.48
2017-12-23T13:14:34.592Z,102248.99
2017-12-23T13:17:01.397Z,102243.28
2017-12-23T13:19:28.208Z,102236.29
2017-12-23T13:21:55.016Z,102236.29
2017-12-23T13:24:21.831Z,102235.81
2017-12-23T13:26:48.638Z,102229.70
2017-12-23T13:29:15.550Z,102229.27
2017-12-23T13:31:43.049Z,102225.79
2017-12-23T13:34:09.891Z,102227.11
2017-12-23T13:36:37.683Z,102220.95
2017-12-23T13:39:04.557Z,102217.08
2017-12-23T13:41:31.323Z,102217.52
2017-12-23T13:43:58.106Z,102211.81
2017-12-23T13:46:25.052Z,102212.25
2017-12-23T13:48:51.820Z,102219.76
2017-12-23T13:51:19.387Z,102205.26
2017-12-23T13:53:46.205Z,102209.25
2017-12-23T13:56:13.918Z,102208.38
2017-12-23T13:58:40.792Z,102215.84
2017-12-23T14:01:07.589Z,102212.73
2017-12-23T14:03:34.756Z,102209.25
2017-12-23T14:06:01.572Z,102209.77
2017-12-23T14:08:28.412Z,102209.30
2017-12-23T14:10:55.232Z,102210.57
2017-12-23T14:13:22.012Z,102208.38
2017-12-23T14:15:50.002Z,102204.02
2017-12-23T14:18:17.942Z,102210.61
2017-12-23T14:20:49.936Z,102208.38
2017-12-23T14:23:17.213Z,102205.34
2017-12-23T14:25:44.923Z,102211.97
2017-12-23T14:28:12.538Z,102205.34
2017-12-23T14:30:39.589Z,102205.78
2017-12-23T14:33:06.685Z,102201.86
2017-12-23T14:35:34.077Z,102194.44
2017-12-23T14:38:01.225Z,102197.43
2017-12-23T14:40:28.142Z,102195.67
2017-12-23T14:42:55.929Z,102200.11
2017-12-23T14:45:24.817Z,102193.03
2017-12-23T14:47:52.589Z,102192.16
2017-12-23T14:50:20.372Z,102186.05
2017-12-23T14:52:48.176Z,102185.58
2017-12-23T14:55:21.314Z,102182.09
2017-12-23T14:57:48.284Z,102189.97
2017-12-23T15:00:20.624Z,102179.47
2017-12-23T15:02:47.789Z,102179.86
2017-12-23T15:05:15.141Z,102179.86
2017-12-23T15:07:42.006Z,102184.25
2017-12-23T15:10:14.562Z,102182.90
2017-12-23T15:12:41.496Z,102182.02
2017-12-23T15:15:08.714Z,102178.06
2017-12-23T15:17:36.599Z,102189.52
2017-12-23T15:20:04.891Z,102191.32
2017-12-23T15:22:32.746Z,102181.58
2017-12-23T15:24:59.642Z,102188.20
2017-12-23T15:27:27.721Z,102181.14
2017-12-23T15:30:03.390Z,102188.12
2017-12-23T15:32:30.243Z,102175.91
2017-12-23T15:34:57.599Z,102181.54
2017-12-23T15:37:31.226Z,102179.86
2017-12-23T15:40:04.103Z,102183.69
2017-12-23T15:42:31.234Z,102178.90
2017-12-23T15:45:03.280Z,102181.89
2017-12-23T15:47:30.365Z,102172.23
2017-12-23T15:49:59.042Z,102179.34
2017-12-23T15:52:25.953Z,102178.82
2017-12-23T15:54:53.901Z,102175.34
2017-12-23T15:57:22.525Z,102176.66
2017-12-23T15:59:54.588Z,102173.55
2017-12-23T16:02:27.089Z,102173.14
2017-12-23T16:04:54.173Z,102172.23
2017-12-23T16:07:21.574Z,102169.95
2017-12-23T16:09:53.631Z,102181.85
2017-12-23T16:12:25.567Z,102181.37
2017-12-23T16:14:58.293Z,102184.80
2017-12-23T16:17:31.132Z,102186.64
2017-12-23T16:20:04.188Z,102170.42
2017-12-23T16:22:32.045Z,102180.09
2017-12-23T16:24:58.850Z,102182.69
2017-12-23T16:27:25.658Z,102179.57
2017-12-23T16:29:52.869Z,102176.10
2017-12-23T16:32:19.870Z,102179.09
2017-12-23T16:34:47.598Z,102176.58
2017-12-23T16:37:14.611Z,102175.66
2017-12-23T16:39:44.641Z,102172.58
2017-12-23T16:42:11.481Z,102177.38
2017-12-23T16:44:38.380Z,102172.58
2017-12-23T16:47:05.942Z,102166.88
2017-12-23T16:49:32.845Z,102170.22
2017-12-23T16:51:59.953Z,102175.05
2017-12-23T16:54:26.863Z,102173.16
2017-12-23T16:56:53.966Z,102173.82
2017-12-23T16:59:21.446Z,102168.54
2017-12-23T17:01:48.314Z,102175.49
2017-12-23T17:04:15.309Z,102176.85
2017-12-23T17:06:42.199Z,102175.89
2017-12-23T17:09:10.697Z,102169.70
2017-12-23T17:11:37.677Z,102166.74
2017-12-23T17:14:04.545Z,102160.95
2017-12-23T17:16:39.562Z,102163.94
2017-12-23T17:19:06.619Z,102157.21
2017-12-23T17:21:38.908Z,102158.93
2017-12-23T17:24:05.830Z,102149.92
2017-12-23T17:26:33.033Z,102152.55
2017-12-23T17:29:18.369Z,102150.71
2017-12-23T17:31:45.350Z,102149.84
2017-12-23T17:34:17.529Z,102145.44
2017-12-23T17:36:44.511Z,102144.42
2017-12-23T17:39:14.503Z,102145.88
2017-12-23T17:41:48.088Z,102152.82
2017-12-23T17:44:16.454Z,102145.39
2017-12-23T17:46:43.845Z,102152.82
2017-12-23T17:49:11.089Z,102148.42
2017-12-23T17:51:39.055Z,102146.22
2017-12-23T17:54:10.807Z,102146.53
2017-12-23T17:56:41.486Z,102147.50
2017-12-23T17:59:15.187Z,102147.14
2017-12-23T18:01:44.106Z,102150.62
2017-12-23T18:04:17.121Z,102144.52
2017-12-23T18:06:44.117Z,102151.85
2017-12-23T18:09:12.174Z,102147.02
2017-12-23T18:11:39.976Z,102151.02
2017-12-23T18:14:13.351Z,102146.94
2017-12-23T18:16:40.362Z,102145.21
2017-12-23T18:19:08.418Z,102148.64
2017-12-23T18:21:35.750Z,102149.61
2017-12-23T18:24:08.060Z,102133.83
2017-12-23T18:26:34.996Z,102138.23
2017-12-23T18:29:08.909Z,102137.70
2017-12-23T18:31:35.817Z,102134.70
2017-12-23T18:34:04.396Z,102130.27
2017-12-23T18:36:36.134Z,102130.27
2017-12-23T18:39:06.295Z,102132.95
2017-12-23T18:41:38.167Z,102131.59
2017-12-23T18:44:08.885Z,102129.48
2017-12-23T18:46:35.769Z,102124.95
2017-12-23T18:49:06.519Z,102129.35
2017-12-23T18:51:34.691Z,102124.95
2017-12-23T18:54:04.438Z,102122.27
2017-12-23T18:56:31.444Z,102113.92
2017-12-23T18:59:05.340Z,102112.59
2017-12-23T19:01:35.866Z,102114.34
2017-12-23T19:04:10.350Z,102111.19
2017-12-23T19:06:37.385Z,102110.70
2017-12-23T19:09:10.936Z,102111.18
2017-12-23T19:12:03.118Z,102112.02
2017-12-23T19:14:31.838Z,102107.23
2017-12-23T19:17:05.190Z,102107.66
2017-12-23T19:19:34.182Z,102102.69
2017-12-23T19:22:01.430Z,102095.76
2017-12-23T19:24:34.718Z,102103.53
2017-12-23T19:27:03.040Z,102103.00
2017-12-23T19:29:30.761Z,102101.28
2017-12-23T19:32:03.597Z,102104.70
2017-12-23T19:34:37.305Z,102104.41
2017-12-23T19:37:07.384Z,102106.17
2017-12-23T19:39:34.701Z,102101.37
2017-12-23T19:42:02.017Z,102096.59
2017-12-23T19:44:30.779Z,102099.52
2017-12-23T19:47:03.460Z,102100.50
2017-12-23T19:49:34.836Z,102099.52
2017-12-23T19:52:02.225Z,102099.22
2017-12-23T19:54:32.431Z,102096.84
2017-12-23T19:56:59.446Z,102087.60
2017-12-23T19:59:28.057Z,102086.88
2017-12-23T20:01:56.146Z,102084.19
2017-12-23T20:04:24.823Z,102082.81
2017-12-23T20:06:52.852Z,102088.83
2017-12-23T20:09:26.435Z,102089.31
2017-12-23T20:11:53.977Z,102085.80
2017-12-23T20:14:36.225Z,102086.33
2017-12-23T20:17:04.925Z,102081.48
2017-12-23T20:19:37.950Z,102082.33
2017-12-23T20:22:14.067Z,102089.41
2017-12-23T20:24:41.967Z,102090.73
2017-12-23T20:27:08.901Z,102084.13
2017-12-23T20:29:36.976Z,102078.41
2017-12-23T20:32:04.575Z,102081.48
2017-12-23T20:34:37.152Z,102074.91
2017-12-23T20:37:06.218Z,102076.56
2017-12-23T20:39:34.622Z,102065.62
2017-12-23T20:42:02.279Z,102069.23
2017-12-23T20:44:29.399Z,102064.36
2017-12-23T20:46:56.996Z,102066.50
2017-12-23T20:49:31.255Z,102073.05
2017-12-23T20:51:59.381Z,102080.97
2017-12-23T20:54:26.417Z,102072.66
2017-12-23T20:56:54.813Z,102062.55
2017-12-23T20:59:29.558Z,102061.27
2017-12-23T21:01:56.966Z,102064.75
2017-12-23T21:04:25.087Z,102060.78
2017-12-23T21:06:57.959Z,102056.87
2017-12-23T21:09:26.323Z,102052.42
2017-12-23T21:12:00.905Z,102047.16
2017-12-23T21:14:32.118Z,102049.69
2017-12-23T21:17:03.139Z,102051.16
2017-12-23T21:19:31.080Z,102043.23
2017-12-23T21:22:07.042Z,102041.53
2017-12-23T21:24:35.887Z,102040.66
2017-12-23T21:27:05.183Z,102041.44
2017-12-23T21:29:33.784Z,102044.22
2017-12-23T21:32:03.428Z,102038.84
2017-12-23T21:34:36.463Z,102030.06
2017-12-23T21:37:05.253Z,102028.69
2017-12-23T21:39:36.049Z,102029.61
2017-12-23T21:42:04.691Z,102036.20
2017-12-23T21:44:32.852Z,102028.79
2017-12-23T21:47:06.959Z,102027.42
2017-12-23T21:49:36.483Z,102030.50
2017-12-23T21:52:04.635Z,102032.30
2017-12-23T21:54:37.870Z,102042.32
2017-12-23T21:57:05.843Z,102036.65
2017-12-23T21:59:33.489Z,102036.41
2017-12-23T22:02:01.141Z,102031.22
2017-12-23T22:04:29.406Z,102032.21
2017-12-23T22:07:00.075Z,102026.38
2017-12-23T22:09:29.516Z,102024.34
2017-12-23T22:11:58.273Z,102018.62
2017-12-23T22:14:28.445Z,102025.51
2017-12-23T22:16:56.092Z,102026.92
2017-12-23T22:19:23.063Z,102011.10
2017-12-23T22:21:50.856Z,102024.30
2017-12-23T22:24:18.012Z,102015.06
2017-12-23T22:26:45.428Z,102007.59
2017-12-23T22:29:17.821Z,102012.47
2017-12-23T22:31:47.923Z,102010.32
2017-12-23T22:34:21.713Z,102020.37
2017-12-23T22:36:48.722Z,102006.70
2017-12-23T22:39:16.402Z,102011.16
2017-12-23T22:41:43.740Z,102007.11
2017-12-23T22:44:15.699Z,102001.38
2017-12-23T22:46:42.729Z,102007.14
2017-12-23T22:49:09.815Z,101990.88
2017-12-23T22:51:41.267Z,101994.84
2017-12-23T22:54:13.874Z,101987.36
2017-12-23T22:56:46.966Z,101987.37
2017-12-23T22:59:19.124Z,101986.97
2017-12-23T23:01:45.961Z,101980.72
2017-12-23T23:04:12.757Z,101986.81
2017-12-23T23:06:40.616Z,101997.03
2017-12-23T23:09:07.653Z,101986.97
2017-12-23T23:11:40.649Z,101964.41
2017-12-23T23:14:07.494Z,101963.17
2017-12-23T23:16:35.241Z,101953.89
2017-12-23T23:19:02.859Z,101958.41
2017-12-23T23:21:31.322Z,101949.35
2017-12-23T23:23:59.000Z,101950.23
2017-12-23T23:26:25.937Z,101954.83
2017-12-23T23:28:58.814Z,101958.30
2017-12-23T23:31:26.604Z,101953.94
2017-12-23T23:33:58.067Z,101950.28
2017-12-23T23:36:24.961Z,101954.83
2017-12-23T23:38:52.084Z,101961.86
2017-12-23T23:41:18.982Z,101956.53
2017-12-23T23:43:48.506Z,101956.19
2017-12-23T23:46:15.481Z,101952.52
2017-12-23T23:48:42.473Z,101940.77
2017-12-23T23:51:10.401Z,101932.84
2017-12-23T23:53:40.377Z,101932.41
2017-12-23T23:56:07.258Z,101933.67
2017-12-23T23:58:38.206Z,101941.16
